sensor_id;sensor_type;location;lat;lon;timestamp;pressure;altitude;pressure_sealevel;temperature;humidity
21753;BME280;11038;50.940;20.564;2022-07-24T00:01:05;97849.09;;;19.28;100.00
21753;BME280;11038;50.940;20.564;2022-07-24T00:02:37;97847.22;;;19.28;100.00
21753;BME280;11038;50.940;20.564;2022-07-24T00:04:10;97846.38;;;19.28;100.00
21753;BME280;11038;50.940;20.564;2022-07-24T00:05:42;97848.50;;;19.25;100.00
21753;BME280;11038;50.940;20.564;2022-07-24T00:07:15;97846.00;;;19.24;100.00
21753;BME280;11038;50.940;20.564;2022-07-24T00:08:47;97846.44;;;19.21;100.00
21753;BME280;11038;50.940;20.564;2022-07-24T00:10:20;97846.00;;;19.24;100.00
21753;BME280;11038;50.940;20.564;2022-07-24T00:11:53;97848.09;;;19.22;100.00
21753;BME280;11038;50.940;20.564;2022-07-24T00:13:25;97849.38;;;19.19;100.00
21753;BME280;11038;50.940;20.564;2022-07-24T00:14:57;97849.97;;;19.21;100.00
21753;BME280;11038;50.940;20.564;2022-07-24T00:16:30;97855.22;;;19.16;100.00
21753;BME280;11038;50.940;20.564;2022-07-24T00:18:02;97847.31;;;19.14;100.00
21753;BME280;11038;50.940;20.564;2022-07-24T00:19:35;97849.78;;;19.16;100.00
21753;BME280;11038;50.940;20.564;2022-07-24T00:21:07;97845.22;;;19.17;100.00
21753;BME280;11038;50.940;20.564;2022-07-24T00:22:39;97846.69;;;19.12;100.00
21753;BME280;11038;50.940;20.564;2022-07-24T00:24:12;97841.75;;;19.09;100.00
21753;BME280;11038;50.940;20.564;2022-07-24T00:25:44;97849.03;;;19.09;100.00
21753;BME280;11038;50.940;20.564;2022-07-24T00:27:16;97850.69;;;19.10;100.00
21753;BME280;11038;50.940;20.564;2022-07-24T00:28:52;97848.88;;;19.03;100.00
21753;BME280;11038;50.940;20.564;2022-07-24T00:30:24;97852.19;;;19.06;100.00
21753;BME280;11038;50.940;20.564;2022-07-24T00:31:56;97849.09;;;19.02;100.00
21753;BME280;11038;50.940;20.564;2022-07-24T00:33:29;97846.38;;;19.02;100.00
21753;BME280;11038;50.940;20.564;2022-07-24T00:35:02;97848.50;;;19.00;100.00
21753;BME280;11038;50.940;20.564;2022-07-24T00:36:34;97842.03;;;19.01;100.00
21753;BME280;11038;50.940;20.564;2022-07-24T00:38:06;97846.63;;;19.00;100.00
21753;BME280;11038;50.940;20.564;2022-07-24T00:39:39;97845.34;;;19.03;100.00
21753;BME280;11038;50.940;20.564;2022-07-24T00:41:11;97844.13;;;18.99;100.00
21753;BME280;11038;50.940;20.564;2022-07-24T00:42:44;97852.09;;;18.94;100.00
21753;BME280;11038;50.940;20.564;2022-07-24T00:44:16;97844.59;;;18.96;100.00
21753;BME280;11038;50.940;20.564;2022-07-24T00:45:48;97849.63;;;18.92;100.00
21753;BME280;11038;50.940;20.564;2022-07-24T00:47:22;97850.44;;;18.92;100.00
21753;BME280;11038;50.940;20.564;2022-07-24T00:48:54;97848.34;;;18.95;100.00
21753;BME280;11038;50.940;20.564;2022-07-24T00:50:28;97853.31;;;18.98;100.00
21753;BME280;11038;50.940;20.564;2022-07-24T00:52:00;97852.72;;;18.96;100.00
21753;BME280;11038;50.940;20.564;2022-07-24T00:53:33;97859.56;;;18.98;100.00
21753;BME280;11038;50.940;20.564;2022-07-24T00:55:06;97859.75;;;18.97;100.00
21753;BME280;11038;50.940;20.564;2022-07-24T00:56:42;97863.06;;;18.99;100.00
21753;BME280;11038;50.940;20.564;2022-07-24T00:58:15;97866.00;;;18.97;100.00
21753;BME280;11038;50.940;20.564;2022-07-24T00:59:47;97859.75;;;18.97;100.00
21753;BME280;11038;50.940;20.564;2022-07-24T01:01:20;97863.06;;;18.99;100.00
21753;BME280;11038;50.940;20.564;2022-07-24T01:02:53;97862.03;;;19.00;100.00
21753;BME280;11038;50.940;20.564;2022-07-24T01:04:25;97862.47;;;18.97;100.00
21753;BME280;11038;50.940;20.564;2022-07-24T01:05:58;97861.03;;;18.94;100.00
21753;BME280;11038;50.940;20.564;2022-07-24T01:07:31;97857.91;;;18.97;100.00
21753;BME280;11038;50.940;20.564;2022-07-24T01:09:03;97865.78;;;18.99;100.00
21753;BME280;11038;50.940;20.564;2022-07-24T01:10:36;97867.88;;;18.97;100.00
21753;BME280;11038;50.940;20.564;2022-07-24T01:12:09;97863.06;;;18.99;100.00
21753;BME280;11038;50.940;20.564;2022-07-24T01:13:42;97870.38;;;18.98;100.00
21753;BME280;11038;50.940;20.564;2022-07-24T01:15:14;97873.91;;;18.99;100.00
21753;BME280;11038;50.940;20.564;2022-07-24T01:16:47;97868.50;;;18.99;100.00
21753;BME280;11038;50.940;20.564;2022-07-24T01:18:19;97866.00;;;18.97;100.00
21753;BME280;11038;50.940;20.564;2022-07-24T01:19:52;97871.28;;;18.92;100.00
21753;BME280;11038;50.940;20.564;2022-07-24T01:21:24;97867.13;;;18.89;100.00
21753;BME280;11038;50.940;20.564;2022-07-24T01:22:57;97872.97;;;18.86;100.00
21753;BME280;11038;50.940;20.564;2022-07-24T01:24:30;97871.50;;;18.90;100.00
21753;BME280;11038;50.940;20.564;2022-07-24T01:26:06;97869.41;;;18.92;100.00
21753;BME280;11038;50.940;20.564;2022-07-24T01:27:39;97870.03;;;18.88;100.00
21753;BME280;11038;50.940;20.564;2022-07-24T01:29:12;97873.50;;;18.76;100.00
21753;BME280;11038;50.940;20.564;2022-07-24T01:30:46;97869.84;;;18.89;100.00
21753;BME280;11038;50.940;20.564;2022-07-24T01:32:18;97869.00;;;18.89;100.00
21753;BME280;11038;50.940;20.564;2022-07-24T01:33:51;97868.31;;;18.94;100.00
21753;BME280;11038;50.940;20.564;2022-07-24T01:35:23;97872.75;;;18.88;100.00
21753;BME280;11038;50.940;20.564;2022-07-24T01:36:55;97863.81;;;18.87;100.00
21753;BME280;11038;50.940;20.564;2022-07-24T01:38:28;97865.75;;;18.80;100.00
21753;BME280;11038;50.940;20.564;2022-07-24T01:40:00;97870.50;;;18.85;100.00
21753;BME280;11038;50.940;20.564;2022-07-24T01:41:33;97863.78;;;18.68;100.00
21753;BME280;11038;50.940;20.564;2022-07-24T01:43:06;97867.09;;;18.70;100.00
21753;BME280;11038;50.940;20.564;2022-07-24T01:44:38;97862.09;;;18.67;100.00
21753;BME280;11038;50.940;20.564;2022-07-24T01:46:11;97870.81;;;18.69;100.00
21753;BME280;11038;50.940;20.564;2022-07-24T01:47:44;97863.50;;;18.77;100.00
21753;BME280;11038;50.940;20.564;2022-07-24T01:49:17;97865.13;;;18.78;100.00
21753;BME280;11038;50.940;20.564;2022-07-24T01:50:49;97870.56;;;18.78;100.00
21753;BME280;11038;50.940;20.564;2022-07-24T01:52:22;97862.72;;;18.69;100.00
21753;BME280;11038;50.940;20.564;2022-07-24T01:53:57;97859.31;;;18.74;100.00
21753;BME280;11038;50.940;20.564;2022-07-24T01:55:30;97864.75;;;18.74;100.00
21753;BME280;11038;50.940;20.564;2022-07-24T01:57:02;97859.53;;;18.79;100.00
21753;BME280;11038;50.940;20.564;2022-07-24T01:58:37;97857.09;;;18.71;100.00
21753;BME280;11038;50.940;20.564;2022-07-24T02:00:12;97857.91;;;18.72;100.00
21753;BME280;11038;50.940;20.564;2022-07-24T02:01:45;97861.88;;;18.69;100.00
21753;BME280;11038;50.940;20.564;2022-07-24T02:03:19;97858.13;;;18.70;100.00
21753;BME280;11038;50.940;20.564;2022-07-24T02:04:51;97853.38;;;18.65;100.00
21753;BME280;11038;50.940;20.564;2022-07-24T02:06:24;97851.88;;;18.69;100.00
21753;BME280;11038;50.940;20.564;2022-07-24T02:07:58;97851.28;;;18.67;100.00
21753;BME280;11038;50.940;20.564;2022-07-24T02:09:31;97849.84;;;18.65;100.00
21753;BME280;11038;50.940;20.564;2022-07-24T02:11:04;97841.16;;;18.56;100.00
21753;BME280;11038;50.940;20.564;2022-07-24T02:12:36;97849.00;;;18.64;100.00
21753;BME280;11038;50.940;20.564;2022-07-24T02:14:09;97838.63;;;18.61;100.00
21753;BME280;11038;50.940;20.564;2022-07-24T02:15:41;97846.31;;;18.64;100.00
21753;BME280;11038;50.940;20.564;2022-07-24T02:17:13;97842.34;;;18.67;100.00
21753;BME280;11038;50.940;20.564;2022-07-24T02:18:45;97850.69;;;18.65;100.00
21753;BME280;11038;50.940;20.564;2022-07-24T02:20:18;97849.44;;;18.61;100.00
21753;BME280;11038;50.940;20.564;2022-07-24T02:21:51;97853.59;;;18.64;100.00
21753;BME280;11038;50.940;20.564;2022-07-24T02:23:23;97849.13;;;18.51;100.00
21753;BME280;11038;50.940;20.564;2022-07-24T02:24:55;97856.56;;;18.55;100.00
21753;BME280;11038;50.940;20.564;2022-07-24T02:26:28;97857.81;;;18.59;100.00
21753;BME280;11038;50.940;20.564;2022-07-24T02:28:00;97856.03;;;18.46;100.00
21753;BME280;11038;50.940;20.564;2022-07-24T02:29:32;97852.06;;;18.49;100.00
21753;BME280;11038;50.940;20.564;2022-07-24T02:31:04;97850.81;;;18.45;100.00
21753;BME280;11038;50.940;20.564;2022-07-24T02:32:37;97860.81;;;18.44;100.00
21753;BME280;11038;50.940;20.564;2022-07-24T02:34:09;97854.53;;;18.51;100.00
21753;BME280;11038;50.940;20.564;2022-07-24T02:35:42;97859.34;;;18.48;100.00
21753;BME280;11038;50.940;20.564;2022-07-24T02:37:14;97860.78;;;18.51;100.00
21753;BME280;11038;50.940;20.564;2022-07-24T02:38:47;97853.50;;;18.52;100.00
21753;BME280;11038;50.940;20.564;2022-07-24T02:40:19;97863.69;;;18.50;100.00
21753;BME280;11038;50.940;20.564;2022-07-24T02:41:51;97855.84;;;18.41;100.00
21753;BME280;11038;50.940;20.564;2022-07-24T02:43:24;97852.31;;;18.41;100.00
21753;BME280;11038;50.940;20.564;2022-07-24T02:44:56;97856.03;;;18.46;100.00
21753;BME280;11038;50.940;20.564;2022-07-24T02:46:28;97855.50;;;18.31;100.00
21753;BME280;11038;50.940;20.564;2022-07-24T02:48:01;97867.53;;;18.35;100.00
21753;BME280;11038;50.940;20.564;2022-07-24T02:49:33;97860.63;;;18.39;100.00
21753;BME280;11038;50.940;20.564;2022-07-24T02:51:05;97865.00;;;18.40;100.00
21753;BME280;11038;50.940;20.564;2022-07-24T02:52:38;97866.47;;;18.36;100.00
21753;BME280;11038;50.940;20.564;2022-07-24T02:54:10;97868.16;;;18.37;100.00
21753;BME280;11038;50.940;20.564;2022-07-24T02:55:42;97855.28;;;18.32;100.00
21753;BME280;11038;50.940;20.564;2022-07-24T02:57:15;97870.06;;;18.30;100.00
21753;BME280;11038;50.940;20.564;2022-07-24T02:58:47;97866.94;;;18.33;100.00
21753;BME280;11038;50.940;20.564;2022-07-24T03:00:19;97868.38;;;18.35;100.00
21753;BME280;11038;50.940;20.564;2022-07-24T03:01:51;97866.72;;;18.34;100.00
21753;BME280;11038;50.940;20.564;2022-07-24T03:03:25;97873.03;;;18.21;100.00
21753;BME280;11038;50.940;20.564;2022-07-24T03:04:57;97874.41;;;18.31;100.00
21753;BME280;11038;50.940;20.564;2022-07-24T03:06:30;97873.41;;;18.25;100.00
21753;BME280;11038;50.940;20.564;2022-07-24T03:08:02;97877.38;;;18.22;100.00
21753;BME280;11038;50.940;20.564;2022-07-24T03:09:35;97873.44;;;18.18;100.00
21753;BME280;11038;50.940;20.564;2022-07-24T03:11:07;97880.31;;;18.21;100.00
21753;BME280;11038;50.940;20.564;2022-07-24T03:12:40;97875.50;;;18.23;100.00
21753;BME280;11038;50.940;20.564;2022-07-24T03:14:13;97880.09;;;18.22;100.00
21753;BME280;11038;50.940;20.564;2022-07-24T03:15:45;97887.97;;;18.17;100.00
21753;BME280;11038;50.940;20.564;2022-07-24T03:17:17;97881.78;;;18.17;100.00
21753;BME280;11038;50.940;20.564;2022-07-24T03:18:49;97890.69;;;18.17;100.00
21753;BME280;11038;50.940;20.564;2022-07-24T03:20:27;97894.66;;;18.21;100.00
21753;BME280;11038;50.940;20.564;2022-07-24T03:22:00;97891.13;;;18.21;100.00
21753;BME280;11038;50.940;20.564;2022-07-24T03:23:32;97896.94;;;18.18;100.00
21753;BME280;11038;50.940;20.564;2022-07-24T03:25:05;97901.72;;;18.22;100.00
21753;BME280;11038;50.940;20.564;2022-07-24T03:26:37;97895.06;;;18.18;100.00
21753;BME280;11038;50.940;20.564;2022-07-24T03:28:10;97905.47;;;18.14;100.00
21753;BME280;11038;50.940;20.564;2022-07-24T03:29:42;97904.63;;;18.14;100.00
21753;BME280;11038;50.940;20.564;2022-07-24T03:31:14;97907.56;;;18.12;100.00
21753;BME280;11038;50.940;20.564;2022-07-24T03:32:46;97909.66;;;18.10;100.00
21753;BME280;11038;50.940;20.564;2022-07-24T03:34:19;97908.66;;;18.04;100.00
21753;BME280;11038;50.940;20.564;2022-07-24T03:35:51;97909.25;;;18.07;100.00
21753;BME280;11038;50.940;20.564;2022-07-24T03:37:23;97914.06;;;18.04;100.00
21753;BME280;11038;50.940;20.564;2022-07-24T03:38:56;97919.03;;;18.08;100.00
21753;BME280;11038;50.940;20.564;2022-07-24T03:40:28;97922.78;;;18.07;100.00
21753;BME280;11038;50.940;20.564;2022-07-24T03:42:01;97920.06;;;18.07;100.00
21753;BME280;11038;50.940;20.564;2022-07-24T03:43:33;97916.78;;;17.98;100.00
21753;BME280;11038;50.940;20.564;2022-07-24T03:45:06;97922.59;;;18.01;100.00
21753;BME280;11038;50.940;20.564;2022-07-24T03:46:38;97930.03;;;18.06;100.00
21753;BME280;11038;50.940;20.564;2022-07-24T03:48:11;97928.41;;;18.05;100.00
21753;BME280;11038;50.940;20.564;2022-07-24T03:49:43;97938.81;;;18.01;100.00
21753;BME280;11038;50.940;20.564;2022-07-24T03:51:15;97931.72;;;18.07;100.00
21753;BME280;11038;50.940;20.564;2022-07-24T03:52:51;97936.47;;;18.12;100.00
21753;BME280;11038;50.940;20.564;2022-07-24T03:54:23;97932.91;;;18.18;100.00
21753;BME280;11038;50.940;20.564;2022-07-24T03:55:55;97941.22;;;18.30;100.00
21753;BME280;11038;50.940;20.564;2022-07-24T03:57:28;97943.25;;;18.35;100.00
21753;BME280;11038;50.940;20.564;2022-07-24T03:59:00;97939.06;;;18.39;100.00
21753;BME280;11038;50.940;20.564;2022-07-24T04:00:33;97943.69;;;18.32;100.00
21753;BME280;11038;50.940;20.564;2022-07-24T04:02:05;97937.38;;;18.45;100.00
21753;BME280;11038;50.940;20.564;2022-07-24T04:03:38;97942.03;;;18.31;100.00
21753;BME280;11038;50.940;20.564;2022-07-24T04:05:10;97942.78;;;18.45;100.00
21753;BME280;11038;50.940;20.564;2022-07-24T04:06:44;97944.19;;;18.54;100.00
21753;BME280;11038;50.940;20.564;2022-07-24T04:08:17;97938.81;;;18.47;100.00
21753;BME280;11038;50.940;20.564;2022-07-24T04:09:49;97937.34;;;18.52;100.00
21753;BME280;11038;50.940;20.564;2022-07-24T04:11:22;97946.84;;;18.61;100.00
21753;BME280;11038;50.940;20.564;2022-07-24T04:12:54;97943.88;;;18.69;100.00
21753;BME280;11038;50.940;20.564;2022-07-24T04:14:26;97942.69;;;18.65;100.00
21753;BME280;11038;50.940;20.564;2022-07-24T04:15:59;97946.59;;;18.69;100.00
21753;BME280;11038;50.940;20.564;2022-07-24T04:17:31;97943.41;;;18.79;100.00
21753;BME280;11038;50.940;20.564;2022-07-24T04:19:04;97940.91;;;18.78;100.00
21753;BME280;11038;50.940;20.564;2022-07-24T04:20:38;97940.72;;;18.79;100.00
21753;BME280;11038;50.940;20.564;2022-07-24T04:22:10;97941.25;;;18.88;100.00
21753;BME280;11038;50.940;20.564;2022-07-24T04:23:43;97946.94;;;18.80;100.00
21753;BME280;11038;50.940;20.564;2022-07-24T04:25:15;97947.56;;;18.82;100.00
21753;BME280;11038;50.940;20.564;2022-07-24T04:26:48;97948.47;;;18.69;100.00
21753;BME280;11038;50.940;20.564;2022-07-24T04:28:20;97949.13;;;18.64;100.00
21753;BME280;11038;50.940;20.564;2022-07-24T04:29:53;97949.09;;;18.71;100.00
21753;BME280;11038;50.940;20.564;2022-07-24T04:31:25;97950.97;;;18.70;100.00
21753;BME280;11038;50.940;20.564;2022-07-24T04:33:00;97960.47;;;18.80;100.00
21753;BME280;11038;50.940;20.564;2022-07-24T04:34:32;97958.59;;;18.80;100.00
21753;BME280;11038;50.940;20.564;2022-07-24T04:36:06;97953.75;;;18.89;100.00
21753;BME280;11038;50.940;20.564;2022-07-24T04:37:42;97953.91;;;18.95;100.00
21753;BME280;11038;50.940;20.564;2022-07-24T04:39:14;97960.38;;;18.94;100.00
21753;BME280;11038;50.940;20.564;2022-07-24T04:40:48;97961.16;;;19.01;100.00
21753;BME280;11038;50.940;20.564;2022-07-24T04:42:22;97958.53;;;19.20;100.00
21753;BME280;11038;50.940;20.564;2022-07-24T04:43:55;97966.00;;;19.24;100.00
21753;BME280;11038;50.940;20.564;2022-07-24T04:45:27;97964.78;;;19.20;100.00
21753;BME280;11038;50.940;20.564;2022-07-24T04:47:06;97963.88;;;19.52;100.00
21753;BME280;11038;50.940;20.564;2022-07-24T04:48:39;97969.59;;;19.63;100.00
21753;BME280;11038;50.940;20.564;2022-07-24T04:50:11;97974.88;;;19.76;98.75
21753;BME280;11038;50.940;20.564;2022-07-24T04:51:45;97977.88;;;19.87;97.03
21753;BME280;11038;50.940;20.564;2022-07-24T04:53:18;97976.09;;;19.80;94.82
21753;BME280;11038;50.940;20.564;2022-07-24T04:54:50;97974.41;;;19.61;92.44
21753;BME280;11038;50.940;20.564;2022-07-24T04:56:22;97988.03;;;19.73;91.73
21753;BME280;11038;50.940;20.564;2022-07-24T04:57:55;97984.97;;;19.88;89.90
21753;BME280;11038;50.940;20.564;2022-07-24T04:59:27;97990.25;;;20.20;89.46
21753;BME280;11038;50.940;20.564;2022-07-24T05:01:00;97991.28;;;20.57;88.29
21753;BME280;11038;50.940;20.564;2022-07-24T05:02:32;97991.81;;;20.78;86.08
21753;BME280;11038;50.940;20.564;2022-07-24T05:04:05;97992.31;;;20.99;83.55
21753;BME280;11038;50.940;20.564;2022-07-24T05:05:37;97986.59;;;21.07;81.42
21753;BME280;11038;50.940;20.564;2022-07-24T05:07:09;97992.44;;;21.47;80.31
21753;BME280;11038;50.940;20.564;2022-07-24T05:08:42;97994.88;;;21.73;78.09
21753;BME280;11038;50.940;20.564;2022-07-24T05:10:14;97998.31;;;21.92;76.49
21753;BME280;11038;50.940;20.564;2022-07-24T05:11:46;97998.88;;;22.18;73.92
21753;BME280;11038;50.940;20.564;2022-07-24T05:13:19;98002.09;;;22.44;72.84
21753;BME280;11038;50.940;20.564;2022-07-24T05:14:51;98014.69;;;22.75;71.15
21753;BME280;11038;50.940;20.564;2022-07-24T05:16:23;98013.59;;;23.05;69.13
21753;BME280;11038;50.940;20.564;2022-07-24T05:17:56;98012.19;;;23.20;66.83
21753;BME280;11038;50.940;20.564;2022-07-24T05:19:28;98012.59;;;23.46;64.66
21753;BME280;11038;50.940;20.564;2022-07-24T05:21:01;98012.34;;;23.82;64.04
21753;BME280;11038;50.940;20.564;2022-07-24T05:22:33;98008.69;;;24.16;62.22
21753;BME280;11038;50.940;20.564;2022-07-24T05:24:05;98020.19;;;24.41;60.47
21753;BME280;11038;50.940;20.564;2022-07-24T05:25:38;98018.94;;;24.76;59.67
21753;BME280;11038;50.940;20.564;2022-07-24T05:27:10;98023.09;;;24.84;58.70
21753;BME280;11038;50.940;20.564;2022-07-24T05:28:43;98025.38;;;25.20;57.80
21753;BME280;11038;50.940;20.564;2022-07-24T05:30:16;98033.50;;;25.43;55.91
21753;BME280;11038;50.940;20.564;2022-07-24T05:31:48;98033.09;;;25.62;53.87
21753;BME280;11038;50.940;20.564;2022-07-24T05:33:21;98034.66;;;25.85;53.21
21753;BME280;11038;50.940;20.564;2022-07-24T05:34:53;98036.56;;;25.85;51.55
21753;BME280;11038;50.940;20.564;2022-07-24T05:36:25;98039.69;;;26.04;51.47
21753;BME280;11038;50.940;20.564;2022-07-24T05:37:57;98037.06;;;26.36;50.39
21753;BME280;11038;50.940;20.564;2022-07-24T05:39:30;98024.56;;;26.50;50.06
21753;BME280;11038;50.940;20.564;2022-07-24T05:41:02;98037.97;;;26.52;49.32
21753;BME280;11038;50.940;20.564;2022-07-24T05:42:35;98034.47;;;26.62;48.67
21753;BME280;11038;50.940;20.564;2022-07-24T05:44:07;98039.16;;;26.82;48.40
21753;BME280;11038;50.940;20.564;2022-07-24T05:45:40;98035.06;;;26.90;47.84
21753;BME280;11038;50.940;20.564;2022-07-24T05:47:12;98035.88;;;26.96;47.37
21753;BME280;11038;50.940;20.564;2022-07-24T05:48:44;98043.06;;;27.18;47.04
21753;BME280;11038;50.940;20.564;2022-07-24T05:50:20;98044.44;;;27.31;46.13
21753;BME280;11038;50.940;20.564;2022-07-24T05:51:52;98051.31;;;27.49;46.42
21753;BME280;11038;50.940;20.564;2022-07-24T05:53:26;98046.06;;;27.63;46.69
21753;BME280;11038;50.940;20.564;2022-07-24T05:54:58;98050.19;;;27.56;44.92
21753;BME280;11038;50.940;20.564;2022-07-24T05:56:31;98049.91;;;27.78;44.92
21753;BME280;11038;50.940;20.564;2022-07-24T05:58:03;98055.13;;;27.90;44.66
21753;BME280;11038;50.940;20.564;2022-07-24T05:59:36;98055.63;;;28.08;44.78
21753;BME280;11038;50.940;20.564;2022-07-24T06:01:08;98053.44;;;28.15;43.89
21753;BME280;11038;50.940;20.564;2022-07-24T06:02:41;98055.88;;;28.17;43.48
21753;BME280;11038;50.940;20.564;2022-07-24T06:04:14;98053.97;;;28.12;43.84
21753;BME280;11038;50.940;20.564;2022-07-24T06:05:46;98060.34;;;27.76;45.67
21753;BME280;11038;50.940;20.564;2022-07-24T06:07:18;98057.84;;;28.06;42.17
21753;BME280;11038;50.940;20.564;2022-07-24T06:08:51;98057.31;;;28.04;43.44
21753;BME280;11038;50.940;20.564;2022-07-24T06:10:23;98055.56;;;28.34;43.20
21753;BME280;11038;50.940;20.564;2022-07-24T06:11:57;98057.34;;;27.93;41.86
21753;BME280;11038;50.940;20.564;2022-07-24T06:13:29;98052.63;;;27.94;43.49
21753;BME280;11038;50.940;20.564;2022-07-24T06:15:02;98055.06;;;28.16;43.51
21753;BME280;11038;50.940;20.564;2022-07-24T06:16:34;98063.06;;;27.97;42.89
21753;BME280;11038;50.940;20.564;2022-07-24T06:18:06;98065.53;;;28.09;42.28
21753;BME280;11038;50.940;20.564;2022-07-24T06:19:38;98067.69;;;28.17;42.18
21753;BME280;11038;50.940;20.564;2022-07-24T06:21:11;98064.59;;;28.35;41.64
21753;BME280;11038;50.940;20.564;2022-07-24T06:22:44;98068.72;;;28.48;42.42
21753;BME280;11038;50.940;20.564;2022-07-24T06:24:20;98065.66;;;28.55;41.78
21753;BME280;11038;50.940;20.564;2022-07-24T06:25:52;98067.28;;;28.61;41.25
21753;BME280;11038;50.940;20.564;2022-07-24T06:27:25;98066.91;;;28.73;42.25
21753;BME280;11038;50.940;20.564;2022-07-24T06:28:57;98058.34;;;28.85;41.59
21753;BME280;11038;50.940;20.564;2022-07-24T06:30:33;98069.78;;;29.03;41.82
21753;BME280;11038;50.940;20.564;2022-07-24T06:32:06;98067.53;;;29.15;40.73
21753;BME280;11038;50.940;20.564;2022-07-24T06:33:39;98064.38;;;29.33;40.26
21753;BME280;11038;50.940;20.564;2022-07-24T06:35:12;98066.97;;;28.62;41.13
21753;BME280;11038;50.940;20.564;2022-07-24T06:36:44;98065.97;;;28.37;42.05
21753;BME280;11038;50.940;20.564;2022-07-24T06:38:16;98070.63;;;28.52;40.13
21753;BME280;11038;50.940;20.564;2022-07-24T06:39:49;98074.09;;;28.69;40.54
21753;BME280;11038;50.940;20.564;2022-07-24T06:41:21;98079.13;;;28.40;40.82
21753;BME280;11038;50.940;20.564;2022-07-24T06:42:54;98072.56;;;28.47;40.46
21753;BME280;11038;50.940;20.564;2022-07-24T06:44:26;98072.56;;;28.36;39.88
21753;BME280;11038;50.940;20.564;2022-07-24T06:45:58;98071.72;;;28.41;39.96
21753;BME280;11038;50.940;20.564;2022-07-24T06:47:31;98072.00;;;28.39;39.80
21753;BME280;11038;50.940;20.564;2022-07-24T06:49:03;98077.47;;;28.55;40.75
21753;BME280;11038;50.940;20.564;2022-07-24T06:50:36;98079.63;;;28.63;40.03
21753;BME280;11038;50.940;20.564;2022-07-24T06:52:08;98080.28;;;28.34;40.06
21753;BME280;11038;50.940;20.564;2022-07-24T06:53:41;98079.72;;;28.27;40.77
21753;BME280;11038;50.940;20.564;2022-07-24T06:55:15;98084.03;;;28.59;40.27
21753;BME280;11038;50.940;20.564;2022-07-24T06:56:48;98083.97;;;28.75;40.12
21753;BME280;11038;50.940;20.564;2022-07-24T06:58:23;98074.16;;;29.04;39.66
21753;BME280;11038;50.940;20.564;2022-07-24T06:59:56;98081.78;;;28.72;40.07
21753;BME280;11038;50.940;20.564;2022-07-24T07:01:28;98086.38;;;28.05;41.00
21753;BME280;11038;50.940;20.564;2022-07-24T07:03:00;98091.28;;;28.29;40.85
21753;BME280;11038;50.940;20.564;2022-07-24T07:04:33;98078.59;;;28.49;40.12
21753;BME280;11038;50.940;20.564;2022-07-24T07:06:06;98080.03;;;28.20;40.97
21753;BME280;11038;50.940;20.564;2022-07-24T07:07:38;98084.13;;;28.28;41.31
21753;BME280;11038;50.940;20.564;2022-07-24T07:09:11;98084.59;;;28.61;40.94
21753;BME280;11038;50.940;20.564;2022-07-24T07:10:44;98081.88;;;28.46;40.03
21753;BME280;11038;50.940;20.564;2022-07-24T07:12:17;98082.44;;;28.53;39.97
21753;BME280;11038;50.940;20.564;2022-07-24T07:13:49;98070.78;;;28.72;38.23
21753;BME280;11038;50.940;20.564;2022-07-24T07:15:22;98080.91;;;28.82;38.43
21753;BME280;11038;50.940;20.564;2022-07-24T07:16:55;98076.66;;;29.00;38.76
21753;BME280;11038;50.940;20.564;2022-07-24T07:18:28;98082.00;;;28.86;39.25
21753;BME280;11038;50.940;20.564;2022-07-24T07:20:00;98081.72;;;28.82;39.77
21753;BME280;11038;50.940;20.564;2022-07-24T07:21:32;98080.66;;;28.73;39.86
21753;BME280;11038;50.940;20.564;2022-07-24T07:23:05;98086.91;;;28.94;39.61
21753;BME280;11038;50.940;20.564;2022-07-24T07:24:37;98082.81;;;28.81;37.50
21753;BME280;11038;50.940;20.564;2022-07-24T07:26:15;98078.63;;;29.00;38.51
21753;BME280;11038;50.940;20.564;2022-07-24T07:27:47;98081.78;;;29.23;37.26
21753;BME280;11038;50.940;20.564;2022-07-24T07:29:20;98086.81;;;29.05;37.86
21753;BME280;11038;50.940;20.564;2022-07-24T07:30:55;98081.75;;;28.77;39.10
21753;BME280;11038;50.940;20.564;2022-07-24T07:32:28;98084.25;;;29.24;38.21
21753;BME280;11038;50.940;20.564;2022-07-24T07:34:00;98084.38;;;29.44;37.87
21753;BME280;11038;50.940;20.564;2022-07-24T07:35:33;98089.28;;;29.47;36.31
21753;BME280;11038;50.940;20.564;2022-07-24T07:37:05;98088.22;;;29.43;36.72
21753;BME280;11038;50.940;20.564;2022-07-24T07:38:37;98091.16;;;29.22;38.12
21753;BME280;11038;50.940;20.564;2022-07-24T07:40:11;98085.13;;;29.55;37.36
21753;BME280;11038;50.940;20.564;2022-07-24T07:41:43;98086.34;;;29.73;37.09
21753;BME280;11038;50.940;20.564;2022-07-24T07:43:16;98086.72;;;29.91;35.74
21753;BME280;11038;50.940;20.564;2022-07-24T07:44:49;98098.75;;;30.00;36.00
21753;BME280;11038;50.940;20.564;2022-07-24T07:46:21;98093.38;;;29.90;34.70
21753;BME280;11038;50.940;20.564;2022-07-24T07:47:53;98103.88;;;29.47;36.91
21753;BME280;11038;50.940;20.564;2022-07-24T07:49:26;98091.09;;;29.27;36.08
21753;BME280;11038;50.940;20.564;2022-07-24T07:50:58;98099.56;;;28.85;36.63
21753;BME280;11038;50.940;20.564;2022-07-24T07:52:31;98101.00;;;29.28;36.71
21753;BME280;11038;50.940;20.564;2022-07-24T07:54:03;98097.72;;;28.75;36.23
21753;BME280;11038;50.940;20.564;2022-07-24T07:55:35;98098.31;;;29.17;36.44
21753;BME280;11038;50.940;20.564;2022-07-24T07:57:08;98097.22;;;29.54;35.50
21753;BME280;11038;50.940;20.564;2022-07-24T07:58:42;98093.59;;;29.58;35.47
21753;BME280;11038;50.940;20.564;2022-07-24T08:00:15;98098.97;;;29.39;36.00